Time;durP1;ratioP1;P1;durP2;ratioP2;P2;SDS_P1;SDS_P2;PMS_P1;PMS_P2;Temp;Humidity;BMP_temperature;BMP_pressure;BME280_temperature;BME280_humidity;BME280_pressure;Samples;Min_cycle;Max_cycle;Signal;HPM_P1;HPM_P2
2021/11/23 00:01:25;;;;;;;10.38;1.33;;;19.00;99.90;;;;;;5035417;28;20470;-67
2021/11/23 00:03:52;;;;;;;6.05;1.02;;;19.00;99.90;;;;;;5033875;28;20095;-67
2021/11/23 00:06:21;;;;;;;10.00;1.30;;;19.00;99.90;;;;;;5032480;28;20063;-67
2021/11/23 00:08:48;;;;;;;9.68;1.55;;;18.90;99.90;;;;;;5028229;28;20030;-67
2021/11/23 00:11:15;;;;;;;6.70;1.13;;;18.90;99.90;;;;;;5033564;28;20034;-67
2021/11/23 00:13:43;;;;;;;8.00;0.90;;;18.90;99.90;;;;;;5031741;28;20038;-67
2021/11/23 00:16:10;;;;;;;3.35;0.80;;;18.90;99.90;;;;;;5034629;28;20034;-67
2021/11/23 00:18:37;;;;;;;9.15;1.58;;;19.00;99.90;;;;;;5032894;28;20029;-67
2021/11/23 00:21:05;;;;;;;6.57;1.27;;;19.20;99.90;;;;;;5035017;28;20033;-67
2021/11/23 00:23:32;;;;;;;10.27;1.40;;;19.20;99.90;;;;;;5048907;28;20042;-67
2021/11/23 00:26:00;;;;;;;5.40;1.38;;;19.30;99.90;;;;;;5034921;28;20030;-67
2021/11/23 00:28:27;;;;;;;9.02;1.40;;;19.30;99.90;;;;;;5033544;28;20425;-67
2021/11/23 00:30:55;;;;;;;7.85;1.70;;;19.40;99.90;;;;;;5033640;28;20029;-67
2021/11/23 00:33:22;;;;;;;8.88;1.13;;;19.50;99.90;;;;;;5034151;28;20117;-67
2021/11/23 00:35:50;;;;;;;5.13;1.23;;;19.50;99.90;;;;;;5035440;28;20064;-67
2021/11/23 00:38:18;;;;;;;9.10;1.80;;;19.40;99.90;;;;;;5033611;28;20087;-67
2021/11/23 00:40:45;;;;;;;10.63;1.50;;;19.30;99.90;;;;;;5034965;28;20025;-67
2021/11/23 00:43:13;;;;;;;8.25;1.15;;;19.60;99.90;;;;;;5041211;28;20371;-67
2021/11/23 00:45:41;;;;;;;8.23;1.38;;;19.70;99.90;;;;;;5030485;28;20057;-67
2021/11/23 00:48:10;;;;;;;8.07;1.67;;;19.80;99.90;;;;;;5027842;28;20033;-68
2021/11/23 00:50:38;;;;;;;7.10;1.60;;;20.00;99.90;;;;;;5036343;28;20021;-67
2021/11/23 00:53:06;;;;;;;10.70;2.30;;;20.10;99.90;;;;;;5035486;28;20098;-68
2021/11/23 00:55:34;;;;;;;13.77;1.80;;;20.00;99.90;;;;;;5039637;28;20022;-67
2021/11/23 00:58:01;;;;;;;14.23;1.88;;;19.80;99.90;;;;;;5036198;28;20025;-68
2021/11/23 01:00:29;;;;;;;12.77;1.42;;;19.80;99.90;;;;;;5029888;28;20028;-68
2021/11/23 01:02:56;;;;;;;6.45;0.93;;;19.80;99.90;;;;;;5032091;28;20048;-68
2021/11/23 01:05:23;;;;;;;10.57;1.40;;;19.70;99.90;;;;;;5036107;28;20428;-68
2021/11/23 01:07:51;;;;;;;12.93;2.15;;;19.70;99.90;;;;;;5038319;28;20083;-68
2021/11/23 01:10:18;;;;;;;13.48;2.00;;;19.70;99.90;;;;;;5037943;28;20033;-67
2021/11/23 01:12:46;;;;;;;13.52;2.50;;;19.80;99.90;;;;;;5038411;28;20505;-67
2021/11/23 01:15:13;;;;;;;14.27;2.22;;;19.80;99.90;;;;;;5040866;28;20074;-67
2021/11/23 01:17:41;;;;;;;10.32;1.45;;;19.80;99.90;;;;;;5043058;28;20024;-67
2021/11/23 01:20:10;;;;;;;15.63;1.92;;;19.70;99.90;;;;;;5034042;28;20028;-67
2021/11/23 01:22:39;;;;;;;10.02;2.20;;;19.70;99.90;;;;;;5035384;28;20078;-67
2021/11/23 01:25:07;;;;;;;14.82;2.55;;;19.70;99.90;;;;;;5037645;28;20024;-66
2021/11/23 01:27:35;;;;;;;14.18;1.83;;;19.80;99.90;;;;;;5036288;28;20072;-67
2021/11/23 01:30:04;;;;;;;8.25;1.45;;;19.70;99.90;;;;;;5035778;28;20052;-66
2021/11/23 01:32:31;;;;;;;16.23;1.70;;;19.60;99.90;;;;;;5037728;28;20442;-66
2021/11/23 01:34:59;;;;;;;13.77;1.80;;;19.50;99.90;;;;;;5038716;28;20454;-67
2021/11/23 01:37:26;;;;;;;11.98;1.65;;;19.50;99.90;;;;;;5035503;28;20067;-65
2021/11/23 01:39:53;;;;;;;11.73;2.33;;;19.50;99.90;;;;;;5047563;28;20059;-65
2021/11/23 01:42:21;;;;;;;15.05;2.00;;;19.60;99.90;;;;;;5037219;28;20024;-65
2021/11/23 01:44:48;;;;;;;13.15;1.98;;;19.70;99.90;;;;;;5046077;28;20026;-66
2021/11/23 01:47:15;;;;;;;12.27;1.98;;;20.00;99.90;;;;;;5033861;28;20503;-65
2021/11/23 01:49:42;;;;;;;15.40;1.55;;;20.00;99.90;;;;;;5045582;28;20029;-65
2021/11/23 01:52:10;;;;;;;10.43;0.93;;;19.90;99.90;;;;;;5039674;28;20500;-65
2021/11/23 01:54:41;;;;;;;10.75;1.55;;;19.80;99.90;;;;;;5052329;28;20053;-65
2021/11/23 01:57:08;;;;;;;9.98;2.00;;;19.90;99.90;;;;;;5032422;28;20108;-65
2021/11/23 01:59:36;;;;;;;13.95;0.95;;;19.90;99.90;;;;;;5030063;28;20478;-65
2021/11/23 02:02:03;;;;;;;9.70;1.20;;;19.70;99.90;;;;;;5037316;28;20021;-65
2021/11/23 02:04:31;;;;;;;7.82;1.52;;;19.60;99.90;;;;;;5040181;28;20033;-65
2021/11/23 02:06:58;;;;;;;8.00;1.58;;;19.60;99.90;;;;;;5039972;28;20029;-65
2021/11/23 02:09:26;;;;;;;9.30;1.88;;;19.70;99.90;;;;;;5048546;28;20095;-65
2021/11/23 02:11:54;;;;;;;9.90;1.45;;;19.60;99.90;;;;;;5033555;28;20034;-65
2021/11/23 02:14:22;;;;;;;7.90;1.55;;;19.60;99.90;;;;;;5047949;28;20037;-65
2021/11/23 02:16:50;;;;;;;9.52;1.27;;;19.70;99.90;;;;;;5037445;28;20079;-65
2021/11/23 02:19:17;;;;;;;11.48;2.53;;;19.80;99.90;;;;;;5036999;28;20029;-65
2021/11/23 02:21:44;;;;;;;4.55;1.38;;;19.80;99.90;;;;;;5032146;28;20021;-65
2021/11/23 02:24:12;;;;;;;6.88;0.75;;;19.80;99.90;;;;;;5041846;28;20155;-64
2021/11/23 02:26:39;;;;;;;3.85;0.93;;;19.80;99.90;;;;;;5050902;28;20028;-66
2021/11/23 02:29:06;;;;;;;7.25;1.30;;;19.70;99.90;;;;;;5047259;28;20041;-65
2021/11/23 02:31:34;;;;;;;9.65;1.10;;;19.70;99.90;;;;;;5038037;28;21479;-65
2021/11/23 02:34:01;;;;;;;6.72;0.60;;;19.60;99.90;;;;;;5028831;28;20053;-65
2021/11/23 02:36:29;;;;;;;6.82;1.38;;;19.60;99.90;;;;;;5029510;28;20025;-65
2021/11/23 02:38:56;;;;;;;8.43;1.35;;;19.40;99.90;;;;;;5037900;28;20110;-65
2021/11/23 02:41:23;;;;;;;10.20;1.40;;;19.50;99.90;;;;;;5033872;28;20452;-64
2021/11/23 02:43:51;;;;;;;11.10;1.25;;;19.50;99.90;;;;;;5037827;28;20022;-65
2021/11/23 02:46:19;;;;;;;11.02;1.67;;;19.80;99.90;;;;;;5034411;28;20045;-63
2021/11/23 02:48:47;;;;;;;8.93;1.52;;;20.00;99.90;;;;;;5034748;28;20059;-65
2021/11/23 02:51:15;;;;;;;5.72;1.15;;;20.20;99.90;;;;;;5030041;28;20431;-65
2021/11/23 02:53:45;;;;;;;5.95;1.40;;;20.30;99.90;;;;;;5036353;28;20389;-65
2021/11/23 02:56:14;;;;;;;9.52;1.20;;;20.30;99.90;;;;;;5036374;28;20021;-65
2021/11/23 02:58:46;;;;;;;9.25;1.35;;;20.60;99.90;;;;;;5038366;28;20057;-65
2021/11/23 03:01:18;;;;;;;8.57;1.40;;;21.00;99.90;;;;;;5042319;28;20029;-65
2021/11/23 03:03:45;;;;;;;12.80;1.65;;;20.90;99.90;;;;;;5043816;28;20014;-65
2021/11/23 03:06:16;;;;;;;13.13;1.80;;;20.60;99.90;;;;;;5047179;28;20032;-66
2021/11/23 03:08:45;;;;;;;8.95;1.80;;;20.30;99.90;;;;;;5039565;28;20061;-66
2021/11/23 03:11:13;;;;;;;12.63;2.30;;;20.20;99.90;;;;;;5070899;28;20020;-66
2021/11/23 03:13:40;;;;;;;10.13;1.63;;;20.10;99.90;;;;;;5063683;28;20033;-66
2021/11/23 03:16:08;;;;;;;14.43;2.92;;;20.10;99.90;;;;;;5061779;28;20044;-68
2021/11/23 03:18:36;;;;;;;12.73;2.10;;;20.10;99.90;;;;;;5059811;28;20101;-66
2021/11/23 03:21:04;;;;;;;10.63;1.65;;;20.10;99.90;;;;;;5053318;28;20038;-66
2021/11/23 03:23:32;;;;;;;7.43;1.35;;;20.10;99.90;;;;;;5047850;28;20075;-66
2021/11/23 03:25:59;;;;;;;9.35;2.10;;;20.00;99.90;;;;;;5051663;28;20024;-66
2021/11/23 03:28:27;;;;;;;10.30;1.75;;;20.00;99.90;;;;;;5048454;28;20026;-65
2021/11/23 03:30:54;;;;;;;9.90;1.60;;;19.90;99.90;;;;;;5046170;28;20034;-65
2021/11/23 03:33:22;;;;;;;9.35;1.63;;;19.90;99.90;;;;;;5043578;28;20034;-65
2021/11/23 03:35:49;;;;;;;9.40;1.30;;;19.90;99.90;;;;;;5042298;28;20037;-66
2021/11/23 03:38:16;;;;;;;11.95;1.52;;;20.00;99.90;;;;;;5050165;28;20022;-65
2021/11/23 03:40:45;;;;;;;11.65;1.67;;;20.00;99.90;;;;;;5050410;28;20477;-65
2021/11/23 03:43:13;;;;;;;9.70;1.92;;;20.00;99.90;;;;;;5051462;28;20024;-65
2021/11/23 03:45:42;;;;;;;6.63;1.38;;;20.10;99.90;;;;;;5052373;28;20509;-65
2021/11/23 03:48:09;;;;;;;11.75;1.63;;;20.20;99.90;;;;;;5043256;28;20052;-65
2021/11/23 03:50:37;;;;;;;7.10;1.40;;;20.30;99.90;;;;;;5052239;28;20041;-65
2021/11/23 03:53:04;;;;;;;11.52;1.73;;;20.40;99.90;;;;;;5048235;28;20033;-65
2021/11/23 03:55:34;;;;;;;5.53;1.48;;;20.50;99.90;;;;;;5059713;28;20025;-66
2021/11/23 03:58:02;;;;;;;8.85;1.25;;;20.60;99.90;;;;;;5054939;28;20026;-66
2021/11/23 04:00:30;;;;;;;9.05;1.40;;;20.70;99.90;;;;;;5048860;28;20045;-66
2021/11/23 04:02:58;;;;;;;7.57;1.50;;;20.60;99.90;;;;;;5063918;28;20551;-65
2021/11/23 04:05:25;;;;;;;9.88;1.30;;;20.50;99.90;;;;;;5060442;28;20041;-65
2021/11/23 04:07:53;;;;;;;11.00;1.83;;;20.60;99.90;;;;;;5057475;28;20070;-65
2021/11/23 04:10:22;;;;;;;11.57;2.33;;;20.50;99.90;;;;;;5052168;28;20037;-65
2021/11/23 04:12:51;;;;;;;9.98;1.52;;;20.30;99.90;;;;;;5048051;28;20129;-65
2021/11/23 04:15:19;;;;;;;8.95;2.05;;;20.30;99.90;;;;;;5056629;28;20033;-65
2021/11/23 04:17:48;;;;;;;6.47;1.33;;;20.30;99.90;;;;;;5054453;28;20549;-65
2021/11/23 04:20:15;;;;;;;12.65;1.67;;;20.30;99.90;;;;;;5079812;28;20081;-65
2021/11/23 04:22:43;;;;;;;12.60;1.83;;;20.20;99.90;;;;;;5057398;28;20021;-65
2021/11/23 04:25:11;;;;;;;22.20;1.80;;;20.00;99.90;;;;;;5048675;28;20037;-65
2021/11/23 04:27:40;;;;;;;9.95;1.90;;;19.70;99.90;;;;;;5052789;28;20030;-65
2021/11/23 04:30:09;;;;;;;8.88;1.75;;;19.50;99.90;;;;;;5043482;28;20092;-64
2021/11/23 04:32:36;;;;;;;14.23;1.73;;;19.40;99.90;;;;;;5053702;28;20036;-64
2021/11/23 04:35:05;;;;;;;5.82;1.17;;;19.30;99.90;;;;;;5040818;28;20085;-64
2021/11/23 04:37:32;;;;;;;7.88;1.63;;;19.20;99.90;;;;;;5041916;28;20029;-65
2021/11/23 04:39:59;;;;;;;13.63;2.15;;;19.10;99.90;;;;;;5045260;28;20038;-65
2021/11/23 04:42:27;;;;;;;8.13;2.00;;;19.30;99.90;;;;;;5039170;28;20024;-65
2021/11/23 04:44:54;;;;;;;8.15;1.50;;;19.20;99.90;;;;;;5043862;28;20041;-64
2021/11/23 04:47:21;;;;;;;9.40;1.40;;;19.20;99.90;;;;;;5047663;28;20020;-65
2021/11/23 04:49:49;;;;;;;10.65;2.00;;;19.30;99.90;;;;;;5043372;28;20032;-65
2021/11/23 04:52:16;;;;;;;20.17;2.85;;;19.30;99.90;;;;;;5042883;28;20120;-65
2021/11/23 04:54:44;;;;;;;8.10;1.10;;;19.40;99.90;;;;;;5043301;28;20085;-65
2021/11/23 04:57:11;;;;;;;11.82;1.95;;;19.50;99.90;;;;;;5044793;28;20029;-66
2021/11/23 04:59:39;;;;;;;15.20;2.80;;;19.40;99.90;;;;;;5054973;28;20017;-65
2021/11/23 05:02:06;;;;;;;9.98;2.17;;;19.40;99.90;;;;;;5063977;28;20025;-65
2021/11/23 05:04:33;;;;;;;9.00;1.77;;;19.40;99.90;;;;;;5057501;28;20017;-65
2021/11/23 05:07:01;;;;;;;16.55;2.33;;;19.40;99.90;;;;;;5053794;28;20026;-65
2021/11/23 05:09:28;;;;;;;4.68;1.52;;;19.50;99.90;;;;;;5046706;28;20025;-65
2021/11/23 05:11:56;;;;;;;16.95;2.50;;;19.60;99.90;;;;;;5041123;28;20029;-65
2021/11/23 05:14:24;;;;;;;10.70;1.77;;;19.70;99.90;;;;;;5048534;28;20017;-65
2021/11/23 05:16:51;;;;;;;9.70;1.58;;;19.90;99.90;;;;;;5046726;28;20029;-65
2021/11/23 05:19:19;;;;;;;16.27;2.90;;;20.00;99.90;;;;;;5051289;28;20017;-65
2021/11/23 05:21:46;;;;;;;10.45;1.38;;;19.90;99.90;;;;;;5065469;28;20030;-66
2021/11/23 05:24:14;;;;;;;8.05;1.30;;;19.80;99.90;;;;;;5042756;28;20108;-66
2021/11/23 05:26:42;;;;;;;13.43;1.95;;;19.80;99.90;;;;;;5041100;28;20052;-64
2021/11/23 05:29:10;;;;;;;13.68;1.42;;;19.80;99.90;;;;;;5040539;28;20032;-66
2021/11/23 05:31:38;;;;;;;11.63;1.42;;;19.70;99.90;;;;;;5048310;28;20045;-65
2021/11/23 05:34:05;;;;;;;11.45;1.83;;;19.70;99.90;;;;;;5053935;28;20030;-66
2021/11/23 05:36:33;;;;;;;13.25;1.83;;;19.70;99.90;;;;;;5055302;28;20036;-66
2021/11/23 05:39:00;;;;;;;12.93;1.30;;;19.80;99.90;;;;;;5048159;28;20037;-66
2021/11/23 05:41:28;;;;;;;10.63;1.55;;;20.00;99.90;;;;;;5044081;28;20551;-65
2021/11/23 05:43:56;;;;;;;13.48;2.35;;;20.10;99.90;;;;;;5048997;28;20079;-66
2021/11/23 05:46:23;;;;;;;13.02;1.70;;;20.10;99.90;;;;;;5050670;28;20050;-65
2021/11/23 05:48:52;;;;;;;8.50;1.08;;;20.10;99.90;;;;;;5051902;28;20116;-66
2021/11/23 05:51:20;;;;;;;14.50;2.17;;;20.10;99.90;;;;;;5047878;28;20036;-66
2021/11/23 05:53:47;;;;;;;11.60;1.80;;;20.10;99.90;;;;;;5055447;28;20089;-65
2021/11/23 05:56:14;;;;;;;7.40;1.65;;;20.10;99.90;;;;;;5055467;28;20029;-66
2021/11/23 05:58:42;;;;;;;12.32;2.10;;;20.00;99.90;;;;;;5052023;28;20033;-66
2021/11/23 06:01:09;;;;;;;8.85;1.45;;;19.90;99.90;;;;;;5056417;28;20073;-66
2021/11/23 06:03:37;;;;;;;12.65;1.77;;;19.90;99.90;;;;;;5053769;28;20025;-66
2021/11/23 06:06:04;;;;;;;10.73;1.88;;;20.00;99.90;;;;;;5052462;28;20062;-66
2021/11/23 06:08:31;;;;;;;16.58;3.15;;;20.00;99.90;;;;;;5054790;28;20045;-66
2021/11/23 06:10:59;;;;;;;13.75;2.83;;;20.00;99.90;;;;;;5053814;28;20025;-66
2021/11/23 06:13:26;;;;;;;13.98;1.95;;;20.00;99.90;;;;;;5047866;28;20045;-66
2021/11/23 06:15:54;;;;;;;11.07;1.33;;;19.90;99.90;;;;;;5047350;28;20017;-66
2021/11/23 06:18:22;;;;;;;8.32;1.50;;;19.90;99.90;;;;;;5062925;28;20085;-66
2021/11/23 06:20:51;;;;;;;14.27;1.38;;;19.90;99.90;;;;;;5056628;28;20052;-66
2021/11/23 06:23:20;;;;;;;10.55;1.65;;;19.80;99.90;;;;;;5059249;28;20026;-66
2021/11/23 06:25:50;;;;;;;10.43;1.77;;;19.80;99.90;;;;;;5033447;28;20029;-66
2021/11/23 06:28:20;;;;;;;13.45;1.83;;;19.80;99.90;;;;;;5053107;28;20021;-66
2021/11/23 06:30:48;;;;;;;8.52;1.00;;;19.90;99.90;;;;;;5062312;28;20033;-66
2021/11/23 06:33:16;;;;;;;13.55;1.80;;;19.90;99.90;;;;;;5051181;28;20032;-66
2021/11/23 06:35:44;;;;;;;13.05;1.55;;;19.90;99.90;;;;;;5063329;28;20029;-66
2021/11/23 06:38:11;;;;;;;9.82;1.98;;;19.90;99.90;;;;;;5069876;28;20025;-66
2021/11/23 06:40:39;;;;;;;12.50;2.30;;;19.90;99.90;;;;;;5074619;28;20029;-66
2021/11/23 06:43:07;;;;;;;10.85;1.98;;;19.90;99.90;;;;;;5050020;28;20112;-66
2021/11/23 06:45:36;;;;;;;13.18;2.47;;;19.80;99.90;;;;;;5062272;28;20092;-67
2021/11/23 06:48:04;;;;;;;15.38;2.47;;;19.80;99.90;;;;;;5041205;28;20049;-67
2021/11/23 06:50:32;;;;;;;10.77;2.38;;;19.80;99.90;;;;;;5056840;28;20024;-67
2021/11/23 06:53:01;;;;;;;10.45;1.75;;;19.80;99.90;;;;;;5058446;28;20033;-67
2021/11/23 06:55:29;;;;;;;14.50;2.22;;;19.70;99.90;;;;;;5065120;28;20047;-66
2021/11/23 06:57:56;;;;;;;11.35;2.28;;;19.60;99.90;;;;;;5057502;28;20493;-66
2021/11/23 07:00:24;;;;;;;12.48;1.77;;;19.70;99.90;;;;;;5055888;28;20030;-66
2021/11/23 07:02:51;;;;;;;17.25;3.35;;;19.70;99.90;;;;;;5051116;28;20020;-66
2021/11/23 07:05:19;;;;;;;12.23;1.90;;;19.50;99.90;;;;;;5051187;28;20030;-67
2021/11/23 07:07:46;;;;;;;13.68;2.60;;;19.50;99.90;;;;;;5046568;28;20030;-66
2021/11/23 07:10:14;;;;;;;13.65;2.13;;;19.50;99.90;;;;;;5054030;28;20096;-66
2021/11/23 07:12:43;;;;;;;13.95;1.88;;;19.50;99.90;;;;;;5074525;28;20029;-66
2021/11/23 07:15:11;;;;;;;9.40;1.40;;;19.50;99.90;;;;;;5055399;28;20028;-66
2021/11/23 07:17:39;;;;;;;7.50;1.48;;;19.50;99.90;;;;;;5049964;28;20062;-67
2021/11/23 07:20:07;;;;;;;8.77;2.00;;;19.50;99.90;;;;;;5052006;28;20037;-67
2021/11/23 07:22:34;;;;;;;13.82;1.77;;;19.50;99.90;;;;;;5037787;28;20038;-67
2021/11/23 07:25:03;;;;;;;13.25;2.20;;;19.50;99.90;;;;;;5061142;28;20096;-67
2021/11/23 07:27:30;;;;;;;15.70;2.25;;;19.40;99.90;;;;;;5059848;28;20040;-67
2021/11/23 07:29:57;;;;;;;15.20;2.08;;;19.30;99.90;;;;;;5052064;28;20052;-67
2021/11/23 07:32:25;;;;;;;12.10;1.67;;;19.30;99.90;;;;;;5045142;28;20038;-67
2021/11/23 07:34:52;;;;;;;13.10;1.73;;;19.30;99.90;;;;;;5051460;28;20041;-67
2021/11/23 07:37:19;;;;;;;14.05;2.35;;;19.30;99.90;;;;;;5049606;28;20025;-67
2021/11/23 07:39:47;;;;;;;12.02;3.03;;;19.30;99.90;;;;;;5063411;28;20021;-67
2021/11/23 07:42:15;;;;;;;12.07;2.22;;;19.40;99.90;;;;;;5055509;28;20021;-66
2021/11/23 07:44:42;;;;;;;9.65;2.00;;;19.40;99.90;;;;;;5056656;28;20037;-68
2021/11/23 07:47:10;;;;;;;15.75;2.33;;;19.40;99.90;;;;;;5057238;28;20052;-67
2021/11/23 07:49:37;;;;;;;14.38;1.45;;;19.40;99.90;;;;;;5076430;28;20095;-67
2021/11/23 07:52:04;;;;;;;13.70;1.42;;;19.30;99.90;;;;;;5051887;28;20037;-67
2021/11/23 07:54:33;;;;;;;7.20;0.95;;;19.40;99.90;;;;;;5053073;28;20084;-67
2021/11/23 07:57:00;;;;;;;8.75;1.40;;;19.40;99.90;;;;;;5061944;28;20021;-67
2021/11/23 07:59:27;;;;;;;9.57;1.63;;;19.40;99.90;;;;;;5052857;28;20028;-64
2021/11/23 08:01:55;;;;;;;6.60;1.10;;;19.40;99.90;;;;;;5050403;28;20097;-64
2021/11/23 08:04:22;;;;;;;7.63;1.33;;;19.40;99.90;;;;;;5068939;28;20217;-66
2021/11/23 08:06:49;;;;;;;10.55;1.02;;;19.30;99.90;;;;;;5065993;28;20033;-66
2021/11/23 08:09:18;;;;;;;8.43;1.30;;;19.30;99.90;;;;;;5072018;28;20025;-66
2021/11/23 08:11:45;;;;;;;9.80;2.00;;;19.30;99.90;;;;;;5063678;28;20506;-66
2021/11/23 08:14:13;;;;;;;8.45;1.75;;;19.20;99.90;;;;;;5060038;28;20025;-66
2021/11/23 08:16:40;;;;;;;8.75;1.48;;;19.20;99.90;;;;;;5059220;28;20037;-66
2021/11/23 08:19:07;;;;;;;7.88;1.80;;;19.00;99.90;;;;;;5058580;28;20017;-66
2021/11/23 08:21:35;;;;;;;10.93;1.85;;;19.00;99.90;;;;;;5059365;28;20002;-66
2021/11/23 08:24:02;;;;;;;12.07;2.35;;;19.00;99.90;;;;;;5063156;28;20472;-66
2021/11/23 08:26:30;;;;;;;9.05;2.60;;;19.00;99.90;;;;;;5065146;28;20013;-66
2021/11/23 08:28:57;;;;;;;8.73;1.40;;;18.90;99.90;;;;;;5060930;28;20021;-66
2021/11/23 08:31:24;;;;;;;8.82;1.60;;;18.80;99.90;;;;;;5065982;28;20013;-66
2021/11/23 08:33:52;;;;;;;8.70;1.38;;;18.80;99.90;;;;;;5067661;28;20073;-66
2021/11/23 08:36:19;;;;;;;9.63;2.22;;;18.80;99.90;;;;;;5057988;28;20029;-66
2021/11/23 08:38:46;;;;;;;10.68;4.00;;;18.70;99.90;;;;;;5068310;28;20028;-67
2021/11/23 08:41:13;;;;;;;11.80;4.80;;;18.80;99.90;;;;;;5077509;28;20022;-67
2021/11/23 08:43:41;;;;;;;12.80;1.90;;;18.70;99.90;;;;;;5057762;28;20033;-66
2021/11/23 08:46:08;;;;;;;6.57;1.42;;;18.80;99.90;;;;;;5058293;28;20042;-67
2021/11/23 08:48:36;;;;;;;9.25;2.00;;;18.70;99.90;;;;;;5073468;28;20025;-67
2021/11/23 08:51:06;;;;;;;10.82;2.03;;;18.70;99.90;;;;;;5062819;28;20056;-67
2021/11/23 08:53:33;;;;;;;9.65;1.90;;;18.70;99.90;;;;;;5069655;28;20045;-67
2021/11/23 08:56:00;;;;;;;9.93;2.15;;;18.70;99.90;;;;;;5062835;28;20041;-66
2021/11/23 08:58:28;;;;;;;7.75;2.13;;;18.70;99.90;;;;;;5063283;28;20017;-66
2021/11/23 09:00:57;;;;;;;8.70;1.85;;;18.70;99.90;;;;;;5066887;28;20034;-66
2021/11/23 09:03:25;;;;;;;6.82;2.20;;;18.70;99.90;;;;;;5065689;28;20013;-66
2021/11/23 09:05:53;;;;;;;10.75;1.50;;;18.60;99.90;;;;;;5076104;28;20025;-66
2021/11/23 09:08:20;;;;;;;13.73;1.77;;;18.60;99.90;;;;;;5087963;28;20036;-66
2021/11/23 09:10:48;;;;;;;14.30;2.40;;;18.60;99.90;;;;;;5056277;28;20043;-67
2021/11/23 09:13:15;;;;;;;11.10;2.30;;;18.50;99.90;;;;;;5069988;28;20025;-67
2021/11/23 09:15:43;;;;;;;12.40;1.83;;;18.50;99.90;;;;;;5077662;28;20013;-67
2021/11/23 09:18:10;;;;;;;15.88;2.05;;;18.50;99.90;;;;;;5071235;28;20051;-66
2021/11/23 09:20:38;;;;;;;12.68;2.00;;;18.50;99.90;;;;;;5061917;28;20012;-67
2021/11/23 09:23:10;;;;;;;12.07;1.70;;;18.50;99.90;;;;;;5080609;28;20021;-67
2021/11/23 09:25:39;;;;;;;17.77;2.63;;;18.50;99.90;;;;;;5077891;28;20025;-67
2021/11/23 09:28:07;;;;;;;14.02;1.98;;;18.50;99.90;;;;;;5071044;28;20047;-67
2021/11/23 09:30:36;;;;;;;12.40;2.03;;;18.50;99.90;;;;;;5058949;28;20024;-67
2021/11/23 09:33:04;;;;;;;12.00;2.80;;;18.40;99.90;;;;;;5067846;28;20029;-67
2021/11/23 09:35:32;;;;;;;15.57;2.40;;;18.40;99.90;;;;;;5065383;28;20048;-67
2021/11/23 09:38:00;;;;;;;11.00;2.08;;;18.40;99.90;;;;;;5066495;28;20033;-67
2021/11/23 09:40:29;;;;;;;21.27;2.42;;;18.50;99.90;;;;;;5065630;28;20042;-67
2021/11/23 09:42:57;;;;;;;16.25;3.17;;;18.50;99.90;;;;;;5067710;28;20102;-67
2021/11/23 09:45:26;;;;;;;14.43;2.75;;;18.40;99.90;;;;;;5071334;28;20049;-67
2021/11/23 09:47:54;;;;;;;13.43;2.22;;;18.40;99.90;;;;;;5061754;28;20032;-66
2021/11/23 09:50:22;;;;;;;19.48;2.95;;;18.40;99.90;;;;;;5058071;28;20005;-66
2021/11/23 09:52:49;;;;;;;11.05;2.75;;;18.40;99.90;;;;;;5075467;28;20076;-66
2021/11/23 09:55:17;;;;;;;10.15;1.40;;;18.40;99.90;;;;;;5068819;28;20021;-66
2021/11/23 09:57:44;;;;;;;14.40;2.20;;;18.40;99.90;;;;;;5061087;28;20060;-66
2021/11/23 10:00:29;;;;;;;13.80;2.25;;;18.40;99.90;;;;;;5073417;28;20048;-66
2021/11/23 10:03:23;;;;;;;17.55;2.92;;;18.40;99.90;;;;;;5066537;28;20029;-66
2021/11/23 10:05:51;;;;;;;16.45;2.40;;;18.40;99.90;;;;;;5033753;28;20073;-66
2021/11/23 10:08:20;;;;;;;17.02;2.47;;;18.40;99.90;;;;;;5050049;28;20048;-68
2021/11/23 10:10:52;;;;;;;16.30;2.60;;;18.40;99.90;;;;;;5045274;28;20085;-69
2021/11/23 10:13:21;;;;;;;9.27;1.60;;;18.40;99.90;;;;;;5037926;28;20021;-69
2021/11/23 10:15:50;;;;;;;13.82;1.92;;;18.40;99.90;;;;;;5038529;28;20017;-69
2021/11/23 10:18:20;;;;;;;16.70;2.60;;;18.40;99.90;;;;;;5046886;28;20509;-69
2021/11/23 10:20:55;;;;;;;14.80;1.75;;;18.40;99.90;;;;;;5038354;28;20116;-69
2021/11/23 10:23:41;;;;;;;8.38;1.83;;;18.40;99.90;;;;;;5041854;28;20045;-69
2021/11/23 10:26:14;;;;;;;12.23;2.13;;;18.40;99.90;;;;;;5037096;28;20025;-69
2021/11/23 10:29:04;;;;;;;14.57;2.83;;;18.40;99.90;;;;;;5037173;28;20033;-69
2021/11/23 10:31:35;;;;;;;20.88;3.10;;;18.40;99.90;;;;;;5048124;28;20040;-69
2021/11/23 10:34:08;;;;;;;11.15;2.47;;;18.40;99.90;;;;;;5055130;28;20041;-69
2021/11/23 10:36:45;;;;;;;15.38;2.13;;;18.40;99.90;;;;;;5037616;28;20026;-69
2021/11/23 10:39:21;;;;;;;13.45;2.65;;;18.40;99.90;;;;;;5040966;28;20021;-69
2021/11/23 10:41:56;;;;;;;11.77;2.42;;;18.40;99.90;;;;;;5033822;28;20108;-69
2021/11/23 10:44:32;;;;;;;15.32;2.20;;;18.40;99.90;;;;;;5036981;28;20029;-69
2021/11/23 10:47:06;;;;;;;9.95;1.55;;;18.40;99.90;;;;;;5034899;28;20124;-69
2021/11/23 10:49:43;;;;;;;15.85;2.10;;;18.40;99.90;;;;;;5034378;28;20022;-69
2021/11/23 10:52:33;;;;;;;16.63;2.92;;;18.40;99.90;;;;;;5036143;28;20034;-69
2021/11/23 10:55:00;;;;;;;10.02;1.67;;;18.40;99.90;;;;;;5044346;28;20122;-69
2021/11/23 10:57:36;;;;;;;11.00;2.10;;;18.40;99.90;;;;;;5052951;28;20036;-69
2021/11/23 11:00:04;;;;;;;15.85;2.10;;;18.50;99.90;;;;;;5052962;28;20082;-69
2021/11/23 11:02:33;;;;;;;15.38;3.17;;;18.50;99.90;;;;;;5053018;28;20024;-69
2021/11/23 11:05:01;;;;;;;10.82;1.77;;;18.50;99.90;;;;;;5036574;28;20022;-69
2021/11/23 11:07:30;;;;;;;16.92;1.90;;;18.50;99.90;;;;;;5033083;28;20034;-69
2021/11/23 11:09:59;;;;;;;14.50;3.15;;;18.40;99.90;;;;;;5047676;28;20057;-69
2021/11/23 11:12:30;;;;;;;11.98;1.95;;;18.40;99.90;;;;;;5047431;28;20029;-69
2021/11/23 11:14:59;;;;;;;12.00;1.95;;;18.40;99.90;;;;;;5036802;28;20028;-69
2021/11/23 11:17:28;;;;;;;19.67;2.75;;;18.40;99.90;;;;;;5052676;28;20037;-69
2021/11/23 11:20:00;;;;;;;14.73;2.33;;;18.40;99.90;;;;;;5052659;28;20025;-69
2021/11/23 11:22:29;;;;;;;17.05;2.58;;;18.40;99.90;;;;;;5052134;28;20466;-69
2021/11/23 11:27:36;;;;;;;14.75;2.83;;;18.50;99.90;;;;;;5034856;28;20030;-69
2021/11/23 11:30:42;;;;;;;15.73;2.47;;;18.50;99.90;;;;;;5033103;28;20030;-69
2021/11/23 11:33:09;;;;;;;17.17;3.22;;;18.50;99.90;;;;;;5032666;28;20037;-69
2021/11/23 11:35:51;;;;;;;10.82;2.47;;;18.50;99.90;;;;;;5043042;28;20362;-69
2021/11/23 11:38:31;;;;;;;16.27;2.58;;;18.50;99.90;;;;;;5043904;28;20032;-68
2021/11/23 11:41:03;;;;;;;20.88;2.47;;;18.50;99.90;;;;;;5046891;28;20095;-68
2021/11/23 11:43:39;;;;;;;15.25;2.55;;;18.40;99.90;;;;;;5036487;28;20067;-70
2021/11/23 11:46:11;;;;;;;18.30;3.85;;;18.50;99.90;;;;;;5034972;28;20062;-69
2021/11/23 11:48:38;;;;;;;9.38;2.03;;;18.50;99.90;;;;;;5035767;28;20053;-69
2021/11/23 11:51:31;;;;;;;13.43;2.33;;;18.50;99.90;;;;;;5036216;28;20026;-70
2021/11/23 11:54:22;;;;;;;16.70;2.80;;;18.60;99.90;;;;;;5034795;28;20040;-70
2021/11/23 11:56:52;;;;;;;13.18;2.00;;;18.50;99.90;;;;;;5035648;28;20025;-69
2021/11/23 11:59:19;;;;;;;20.38;2.58;;;18.50;99.90;;;;;;5036435;28;20048;-70
2021/11/23 12:02:15;;;;;;;19.02;2.90;;;18.50;99.90;;;;;;5037555;28;20037;-70
2021/11/23 12:05:00;;;;;;;14.70;2.55;;;18.50;99.90;;;;;;5039139;28;20116;-70
2021/11/23 12:07:44;;;;;;;18.13;3.83;;;18.50;99.90;;;;;;5037242;28;20547;-70
2021/11/23 12:10:28;;;;;;;10.23;2.45;;;18.50;99.90;;;;;;5043368;28;20070;-70
2021/11/23 12:13:10;;;;;;;15.90;2.47;;;18.60;99.90;;;;;;5039316;28;20048;-70
2021/11/23 12:16:03;;;;;;;11.85;2.00;;;18.50;99.90;;;;;;5045664;28;20478;-70
2021/11/23 12:18:35;;;;;;;14.15;2.17;;;18.60;99.90;;;;;;5034027;28;20029;-70
2021/11/23 12:21:05;;;;;;;16.58;3.60;;;18.50;99.90;;;;;;5035214;28;20033;-68
2021/11/23 12:23:39;;;;;;;19.95;3.50;;;18.50;99.90;;;;;;5025772;28;20394;-68
2021/11/23 12:26:14;;;;;;;14.60;3.40;;;18.50;99.90;;;;;;5030658;28;20049;-69
2021/11/23 12:28:58;;;;;;;20.60;4.57;;;18.50;99.90;;;;;;5037567;28;20096;-69
2021/11/23 12:31:32;;;;;;;18.75;4.22;;;18.50;99.90;;;;;;5028312;28;20036;-69
2021/11/23 12:34:03;;;;;;;22.50;4.28;;;18.50;99.90;;;;;;5055400;28;20056;-69
2021/11/23 12:36:34;;;;;;;15.93;2.75;;;18.50;99.90;;;;;;5039299;28;20429;-68
2021/11/23 12:39:16;;;;;;;11.32;2.42;;;18.50;99.90;;;;;;5035716;28;20079;-69
2021/11/23 12:41:45;;;;;;;16.10;2.60;;;18.50;99.90;;;;;;5035339;28;20033;-69
2021/11/23 12:44:23;;;;;;;20.27;3.40;;;18.50;99.90;;;;;;5033679;28;20034;-69
2021/11/23 12:47:07;;;;;;;18.67;2.90;;;18.50;99.90;;;;;;5017958;28;20144;-69
2021/11/23 12:49:36;;;;;;;11.27;2.75;;;18.50;99.90;;;;;;5035121;28;20029;-69
2021/11/23 12:52:08;;;;;;;16.42;3.38;;;18.50;99.90;;;;;;5034753;28;20095;-69
2021/11/23 12:54:44;;;;;;;21.27;3.08;;;18.50;99.90;;;;;;5035094;28;20021;-69